createdAt,value
2023-05-10T00:02:27.527Z,4.20
2023-05-10T00:06:04.157Z,4.40
2023-05-10T00:09:42.280Z,2.90
2023-05-10T00:13:19.368Z,4.00
2023-05-10T00:16:57.320Z,3.40
2023-05-10T00:20:34.935Z,3.90
2023-05-10T00:24:12.849Z,3.40
2023-05-10T00:27:50.925Z,3.10
2023-05-10T00:31:28.150Z,3.70
2023-05-10T00:35:06.376Z,3.20
2023-05-10T00:38:43.516Z,3.10
2023-05-10T00:42:21.005Z,3.70
2023-05-10T00:45:58.926Z,3.60
2023-05-10T00:49:37.510Z,3.70
2023-05-10T00:53:14.274Z,3.20
2023-05-10T00:56:52.883Z,3.20
2023-05-10T01:00:30.952Z,4.80
2023-05-10T01:04:07.561Z,4.10
2023-05-10T01:07:44.578Z,3.30
2023-05-10T01:11:23.303Z,3.60
2023-05-10T01:15:02.111Z,3.80
2023-05-10T01:18:40.564Z,3.60
2023-05-10T01:22:44.403Z,3.70
2023-05-10T01:26:19.940Z,4.70
2023-05-10T01:30:15.439Z,3.40
2023-05-10T01:33:53.857Z,3.70
2023-05-10T01:37:22.846Z,3.40
2023-05-10T01:41:17.536Z,3.90
2023-05-10T01:48:48.861Z,3.20
2023-05-10T01:52:23.799Z,3.80
2023-05-10T01:55:57.039Z,3.70
2023-05-10T02:03:13.215Z,3.40
2023-05-10T02:06:51.629Z,2.60
2023-05-10T02:10:28.327Z,3.20
2023-05-10T02:14:06.970Z,3.10
2023-05-10T02:17:43.867Z,3.50
2023-05-10T02:21:22.690Z,3.60
2023-05-10T02:25:00.778Z,3.80
2023-05-10T02:28:36.807Z,4.80
2023-05-10T02:32:13.975Z,3.80
2023-05-10T02:35:52.400Z,3.30
2023-05-10T02:39:29.972Z,3.80
2023-05-10T02:43:08.151Z,3.70
2023-05-10T02:46:44.721Z,3.10
2023-05-10T02:50:22.107Z,3.40
2023-05-10T02:54:01.222Z,5.00
2023-05-10T02:57:43.526Z,3.60
2023-05-10T03:01:14.308Z,4.30
2023-05-10T03:04:54.211Z,4.00
2023-05-10T03:08:33.089Z,4.80
2023-05-10T03:12:24.721Z,3.90
2023-05-10T03:16:03.980Z,3.90
2023-05-10T03:19:31.754Z,4.50
2023-05-10T03:23:14.861Z,3.90
2023-05-10T03:26:39.766Z,4.30
2023-05-10T03:30:16.079Z,3.70
2023-05-10T03:33:54.173Z,3.90
2023-05-10T03:37:31.230Z,4.00
2023-05-10T03:41:08.530Z,3.90
2023-05-10T03:44:46.280Z,3.60
2023-05-10T03:48:23.928Z,4.50
2023-05-10T03:52:01.491Z,3.20
2023-05-10T03:55:39.401Z,4.90
2023-05-10T03:59:16.959Z,2.90
2023-05-10T04:02:54.353Z,3.40
2023-05-10T04:06:33.124Z,2.70
2023-05-10T04:10:09.900Z,3.20
2023-05-10T04:13:47.667Z,3.40
2023-05-10T04:17:25.511Z,3.60
2023-05-10T04:21:03.225Z,3.50
2023-05-10T04:24:40.672Z,3.20
2023-05-10T04:28:18.547Z,3.80
2023-05-10T04:31:56.543Z,3.90
2023-05-10T04:35:34.040Z,3.00
2023-05-10T04:39:30.211Z,3.60
2023-05-10T04:42:49.441Z,2.50
2023-05-10T04:46:26.652Z,3.30
2023-05-10T04:50:08.645Z,4.30
2023-05-10T04:53:44.650Z,3.70
2023-05-10T04:57:19.729Z,3.30
2023-05-10T05:00:57.431Z,3.90
2023-05-10T05:04:35.602Z,3.30
2023-05-10T05:08:13.181Z,3.60
2023-05-10T05:11:50.253Z,3.60
2023-05-10T05:15:28.623Z,3.40
2023-05-10T05:19:06.336Z,3.40
2023-05-10T05:22:43.489Z,3.30
2023-05-10T05:26:21.401Z,3.60
2023-05-10T05:29:59.033Z,3.30
2023-05-10T05:33:36.518Z,3.60
2023-05-10T05:37:15.761Z,3.50
2023-05-10T05:40:51.860Z,3.50
2023-05-10T05:44:30.125Z,3.70
2023-05-10T05:48:07.107Z,3.60
2023-05-10T05:51:45.741Z,2.70
2023-05-10T05:55:22.571Z,3.80
2023-05-10T05:59:00.240Z,3.60
2023-05-10T06:02:38.381Z,4.10
2023-05-10T06:06:15.521Z,3.50
2023-05-10T06:09:53.224Z,3.40
2023-05-10T06:13:33.790Z,3.30
2023-05-10T06:17:08.510Z,3.50
2023-05-10T06:20:46.328Z,3.50
2023-05-10T06:24:23.673Z,3.70
2023-05-10T06:28:02.442Z,3.90
2023-05-10T06:31:39.578Z,3.60
2023-05-10T06:35:17.212Z,3.40
2023-05-10T06:38:54.497Z,5.30
2023-05-10T06:46:10.424Z,5.00
2023-05-10T06:49:48.083Z,3.90
2023-05-10T06:53:25.564Z,3.80
2023-05-10T06:57:08.851Z,4.10
2023-05-10T07:00:41.773Z,4.10
2023-05-10T07:04:18.862Z,3.60
2023-05-10T07:11:33.880Z,4.40
2023-05-10T07:15:11.563Z,4.40
2023-05-10T07:18:49.356Z,4.60
2023-05-10T07:22:26.640Z,4.10
2023-05-10T07:26:04.470Z,4.10
2023-05-10T07:29:42.041Z,3.70
2023-05-10T07:33:19.609Z,4.00
2023-05-10T07:37:00.147Z,4.10
2023-05-10T07:40:35.385Z,4.20
2023-05-10T07:44:12.713Z,4.60
2023-05-10T07:47:50.821Z,3.70
2023-05-10T07:51:29.108Z,4.90
2023-05-10T07:55:06.736Z,3.80
2023-05-10T07:58:43.655Z,3.00
2023-05-10T08:02:21.159Z,3.60
2023-05-10T08:05:59.118Z,3.90
2023-05-10T08:09:37.041Z,3.20
2023-05-10T08:13:14.329Z,3.20
2023-05-10T08:16:51.997Z,3.50
2023-05-10T08:20:29.856Z,3.10
2023-05-10T08:24:07.565Z,3.40
2023-05-10T08:27:46.108Z,3.40
2023-05-10T08:31:22.719Z,3.50
2023-05-10T08:42:20.627Z,2.70
2023-05-10T08:45:57.151Z,2.90
2023-05-10T08:49:33.446Z,2.70
2023-05-10T08:53:14.773Z,2.40
2023-05-10T09:00:24.906Z,2.80
2023-05-10T09:04:02.316Z,2.10
2023-05-10T09:07:39.251Z,2.50
2023-05-10T09:11:18.762Z,2.20
2023-05-10T09:14:56.596Z,2.10
2023-05-10T09:18:32.272Z,2.80
2023-05-10T09:25:48.000Z,2.10
2023-05-10T09:29:25.806Z,2.30
2023-05-10T09:33:04.163Z,2.40
2023-05-10T09:36:58.195Z,2.80
2023-05-10T09:40:21.153Z,2.70
2023-05-10T09:43:59.365Z,1.90
2023-05-10T09:47:35.258Z,2.00
2023-05-10T09:51:11.824Z,2.30
2023-05-10T09:54:55.921Z,2.00
2023-05-10T09:58:27.236Z,2.50
2023-05-10T10:02:04.607Z,2.10
2023-05-10T10:05:44.581Z,2.20
2023-05-10T10:09:19.927Z,2.40
2023-05-10T10:12:57.374Z,2.40
2023-05-10T10:16:35.315Z,2.10
2023-05-10T10:20:13.923Z,2.70
2023-05-10T10:23:51.147Z,2.10
2023-05-10T10:27:58.809Z,2.20
2023-05-10T10:31:24.690Z,2.10
2023-05-10T10:34:43.863Z,2.60
2023-05-10T10:38:22.276Z,1.60
2023-05-10T10:42:01.014Z,3.30
2023-05-10T10:45:42.192Z,2.30
2023-05-10T10:49:16.564Z,1.90
2023-05-10T10:52:53.117Z,2.40
2023-05-10T10:56:30.007Z,2.10
2023-05-10T11:00:29.842Z,2.20
2023-05-10T11:04:00.368Z,2.00
2023-05-10T11:07:24.133Z,2.00
2023-05-10T11:11:00.689Z,2.00
2023-05-10T11:14:38.320Z,2.10
2023-05-10T11:18:26.040Z,2.10
2023-05-10T11:25:45.596Z,2.20
2023-05-10T11:29:19.538Z,2.10
2023-05-10T11:32:57.221Z,2.10
2023-05-10T11:36:37.246Z,2.70
2023-05-10T11:40:13.559Z,2.90
2023-05-10T11:43:55.350Z,1.70
2023-05-10T11:47:27.525Z,2.40
2023-05-10T11:54:53.737Z,2.40
2023-05-10T11:58:22.389Z,2.30
2023-05-10T12:01:58.677Z,2.00
2023-05-10T12:05:37.202Z,1.80
2023-05-10T12:09:13.442Z,1.90
2023-05-10T12:12:53.630Z,1.90
2023-05-10T12:16:30.766Z,2.10
2023-05-10T12:20:28.692Z,2.10
2023-05-10T12:23:47.370Z,2.00
2023-05-10T12:31:01.028Z,3.00
2023-05-10T12:34:38.608Z,2.10
2023-05-10T12:38:39.394Z,2.00
2023-05-10T12:41:54.359Z,2.50
2023-05-10T12:45:32.307Z,2.20
2023-05-10T12:49:09.995Z,1.90
2023-05-10T12:52:47.417Z,2.30
2023-05-10T12:56:25.011Z,1.80
2023-05-10T13:00:02.959Z,2.30
2023-05-10T13:03:40.468Z,2.10
2023-05-10T13:07:18.193Z,2.10
2023-05-10T13:10:55.820Z,2.10
2023-05-10T13:14:33.738Z,1.80
2023-05-10T13:18:11.713Z,2.20
2023-05-10T13:21:48.952Z,2.00
2023-05-10T13:25:26.849Z,2.20
2023-05-10T13:29:04.665Z,2.50
2023-05-10T13:33:00.912Z,2.00
2023-05-10T13:36:19.457Z,2.10
2023-05-10T13:39:57.342Z,2.30
2023-05-10T13:43:35.125Z,4.80
2023-05-10T13:47:12.478Z,2.10
2023-05-10T13:50:50.928Z,2.20
2023-05-10T13:54:30.734Z,2.20
2023-05-10T13:58:06.002Z,2.10
2023-05-10T14:01:44.277Z,2.20
2023-05-10T14:05:25.338Z,2.50
2023-05-10T14:08:58.755Z,1.90
2023-05-10T14:12:36.403Z,2.20
2023-05-10T14:16:16.171Z,2.50
2023-05-10T14:19:51.814Z,2.10
2023-05-10T14:23:29.953Z,2.20
2023-05-10T14:27:07.217Z,4.00
2023-05-10T14:30:44.743Z,2.50
2023-05-10T14:34:22.517Z,1.90
2023-05-10T14:38:00.144Z,2.50
2023-05-10T14:41:38.391Z,2.10
2023-05-10T14:45:15.400Z,3.60
2023-05-10T14:48:53.061Z,2.30
2023-05-10T14:52:32.887Z,3.00
2023-05-10T14:56:08.771Z,2.70
2023-05-10T14:59:45.949Z,2.30
2023-05-10T15:03:24.275Z,2.70
2023-05-10T15:07:01.664Z,2.50
2023-05-10T15:10:58.119Z,3.00
2023-05-10T15:14:17.343Z,2.10
2023-05-10T15:17:54.415Z,1.90
2023-05-10T15:21:36.208Z,2.10
2023-05-10T15:25:10.812Z,2.50
2023-05-10T15:28:47.742Z,2.40
2023-05-10T15:32:25.198Z,2.40
2023-05-10T15:36:04.831Z,2.20
2023-05-10T15:39:40.331Z,2.10
2023-05-10T15:43:17.892Z,2.70
2023-05-10T15:47:15.308Z,1.80
2023-05-10T15:50:33.751Z,3.00
2023-05-10T15:54:11.066Z,2.40
2023-05-10T15:57:50.058Z,2.60
2023-05-10T16:01:26.863Z,1.60
2023-05-10T16:05:05.249Z,1.80
2023-05-10T16:08:42.238Z,1.70
2023-05-10T16:12:21.534Z,2.30
2023-05-10T16:15:58.462Z,1.60
2023-05-10T16:19:36.144Z,2.50
2023-05-10T16:23:15.249Z,1.90
2023-05-10T16:26:50.367Z,2.20
2023-05-10T16:30:30.600Z,2.00
2023-05-10T16:34:06.428Z,2.40
2023-05-10T16:37:43.663Z,1.90
2023-05-10T16:41:21.654Z,1.90
2023-05-10T16:45:07.262Z,2.30
2023-05-10T16:48:37.760Z,2.00
2023-05-10T16:52:15.060Z,1.90
2023-05-10T16:55:52.229Z,2.20
2023-05-10T16:59:31.182Z,2.00
2023-05-10T17:03:07.969Z,2.00
2023-05-10T17:06:45.661Z,1.70
2023-05-10T17:10:23.024Z,2.00
2023-05-10T17:14:01.742Z,2.00
2023-05-10T17:17:57.057Z,2.00
2023-05-10T17:21:16.766Z,2.10
2023-05-10T17:24:53.656Z,1.80
2023-05-10T17:28:31.166Z,1.80
2023-05-10T17:32:11.609Z,1.70
2023-05-10T17:35:47.238Z,1.90
2023-05-10T17:39:23.975Z,2.40
2023-05-10T17:43:02.495Z,1.90
2023-05-10T17:46:40.069Z,1.90
2023-05-10T17:50:16.775Z,2.00
2023-05-10T17:53:55.638Z,1.80
2023-05-10T17:57:33.480Z,1.90
2023-05-10T18:04:49.634Z,3.10
2023-05-10T18:08:27.526Z,1.70
2023-05-10T18:12:03.704Z,2.20
2023-05-10T18:15:41.520Z,2.10
2023-05-10T18:19:18.792Z,1.40
2023-05-10T18:22:57.960Z,1.90
2023-05-10T18:26:34.405Z,2.00
2023-05-10T18:30:12.654Z,2.20
2023-05-10T18:33:50.063Z,1.90
2023-05-10T18:37:28.196Z,1.90
2023-05-10T18:41:06.013Z,1.70
2023-05-10T18:44:42.954Z,2.20
2023-05-10T18:48:20.508Z,2.00
2023-05-10T18:51:58.997Z,1.50
2023-05-10T18:55:38.124Z,2.20
2023-05-10T18:59:14.630Z,1.60
2023-05-10T19:02:50.894Z,2.10
2023-05-10T19:06:28.784Z,2.10
2023-05-10T19:10:06.959Z,2.30
2023-05-10T19:13:45.518Z,2.80
2023-05-10T19:17:25.171Z,2.40
2023-05-10T19:21:03.176Z,2.50
2023-05-10T19:24:57.588Z,2.80
2023-05-10T19:28:14.727Z,2.10
2023-05-10T19:31:53.074Z,1.90
2023-05-10T19:35:31.046Z,2.30
2023-05-10T19:39:07.514Z,2.10
2023-05-10T19:42:45.212Z,1.80
2023-05-10T19:46:23.071Z,1.90
2023-05-10T19:50:00.951Z,2.60
2023-05-10T19:53:38.251Z,2.90
2023-05-10T19:57:15.849Z,2.80
2023-05-10T20:00:53.706Z,2.20
2023-05-10T20:04:31.305Z,1.80
2023-05-10T20:08:09.728Z,2.30
2023-05-10T20:11:46.603Z,2.40
2023-05-10T20:15:24.446Z,1.90
2023-05-10T20:19:01.834Z,2.10
2023-05-10T20:22:39.618Z,2.30
2023-05-10T20:26:17.414Z,2.60
2023-05-10T20:29:54.723Z,2.30
2023-05-10T20:33:32.467Z,2.40
2023-05-10T20:37:10.407Z,1.80
2023-05-10T20:40:49.234Z,2.30
2023-05-10T20:44:25.645Z,2.50
2023-05-10T20:48:03.454Z,2.60
2023-05-10T20:51:40.761Z,2.20
2023-05-10T20:55:19.510Z,2.30
2023-05-10T20:58:56.754Z,2.30
2023-05-10T21:02:53.047Z,3.50
2023-05-10T21:06:11.362Z,2.50
2023-05-10T21:09:50.268Z,2.70
2023-05-10T21:13:45.700Z,2.90
2023-05-10T21:17:04.629Z,2.80
2023-05-10T21:20:42.143Z,3.00
2023-05-10T21:24:19.820Z,2.60
2023-05-10T21:27:57.868Z,2.90
2023-05-10T21:31:35.422Z,2.10
2023-05-10T21:35:12.719Z,2.40
2023-05-10T21:38:50.981Z,3.10
2023-05-10T21:42:28.093Z,3.10
2023-05-10T21:46:06.239Z,3.00
2023-05-10T21:49:43.238Z,2.60
2023-05-10T21:53:22.375Z,2.70
2023-05-10T22:00:36.801Z,2.60
2023-05-10T22:04:14.336Z,2.60
2023-05-10T22:07:52.199Z,2.80
2023-05-10T22:11:30.089Z,2.90
2023-05-10T22:15:10.860Z,3.50
2023-05-10T22:18:45.096Z,2.80
2023-05-10T22:22:22.936Z,2.40
2023-05-10T22:26:02.704Z,3.00
2023-05-10T22:29:38.351Z,3.50
2023-05-10T22:33:15.469Z,2.80
2023-05-10T22:36:53.864Z,3.00
2023-05-10T22:40:31.163Z,2.90
2023-05-10T22:44:09.166Z,3.00
2023-05-10T22:47:47.390Z,2.90
2023-05-10T22:51:24.333Z,3.60
2023-05-10T22:55:01.766Z,3.00
2023-05-10T22:58:39.735Z,3.20
2023-05-10T23:02:17.134Z,3.20
2023-05-10T23:05:54.897Z,3.80
2023-05-10T23:09:32.469Z,3.20
2023-05-10T23:13:10.101Z,3.20
2023-05-10T23:17:06.669Z,3.30
2023-05-10T23:20:25.843Z,3.50
2023-05-10T23:24:03.070Z,3.60
2023-05-10T23:27:40.589Z,3.60
2023-05-10T23:31:18.388Z,3.20
2023-05-10T23:34:55.955Z,3.90
2023-05-10T23:38:33.753Z,3.20
2023-05-10T23:42:11.448Z,4.40
2023-05-10T23:46:01.745Z,3.70
2023-05-10T23:49:26.612Z,4.10
2023-05-10T23:53:04.286Z,3.50
2023-05-10T23:56:42.153Z,3.60
